sensor_id;sensor_type;location;lat;lon;timestamp;pressure;altitude;pressure_sealevel;temperature;humidity
42105;BME280;61464;51.472;5.712;2022-07-22T00:01:06;102004.03;;;14.88;100.00
42105;BME280;61464;51.472;5.712;2022-07-22T00:03:32;102015.38;;;14.97;100.00
42105;BME280;61464;51.472;5.712;2022-07-22T00:05:58;102016.47;;;14.95;100.00
42105;BME280;61464;51.472;5.712;2022-07-22T00:08:24;102028.94;;;15.01;100.00
42105;BME280;61464;51.472;5.712;2022-07-22T00:10:50;102017.50;;;15.02;100.00
42105;BME280;61464;51.472;5.712;2022-07-22T00:13:16;102020.13;;;15.02;100.00
42105;BME280;61464;51.472;5.712;2022-07-22T00:15:43;102012.25;;;14.94;100.00
42105;BME280;61464;51.472;5.712;2022-07-22T00:18:11;102023.38;;;14.96;100.00
42105;BME280;61464;51.472;5.712;2022-07-22T00:20:42;102012.59;;;14.99;100.00
42105;BME280;61464;51.472;5.712;2022-07-22T00:23:08;102015.53;;;14.96;100.00
42105;BME280;61464;51.472;5.712;2022-07-22T00:25:35;102025.66;;;14.99;100.00
42105;BME280;61464;51.472;5.712;2022-07-22T00:28:00;102020.09;;;14.94;100.00
42105;BME280;61464;51.472;5.712;2022-07-22T00:30:26;102015.16;;;14.91;100.00
42105;BME280;61464;51.472;5.712;2022-07-22T00:32:52;102016.97;;;14.90;100.00
42105;BME280;61464;51.472;5.712;2022-07-22T00:35:18;102009.88;;;14.82;100.00
42105;BME280;61464;51.472;5.712;2022-07-22T00:37:44;102007.91;;;14.76;100.00
42105;BME280;61464;51.472;5.712;2022-07-22T00:40:11;102010.22;;;14.79;100.00
42105;BME280;61464;51.472;5.712;2022-07-22T00:42:37;102011.69;;;14.82;100.00
42105;BME280;61464;51.472;5.712;2022-07-22T00:45:05;102012.50;;;14.82;100.00
42105;BME280;61464;51.472;5.712;2022-07-22T00:47:31;102011.53;;;14.83;100.00
42105;BME280;61464;51.472;5.712;2022-07-22T00:49:57;102019.00;;;14.78;100.00
42105;BME280;61464;51.472;5.712;2022-07-22T00:52:23;102013.31;;;14.75;100.00
42105;BME280;61464;51.472;5.712;2022-07-22T00:54:50;102014.13;;;14.75;100.00
42105;BME280;61464;51.472;5.712;2022-07-22T00:57:19;102004.78;;;14.73;100.00
42105;BME280;61464;51.472;5.712;2022-07-22T00:59:45;102018.56;;;14.83;100.00
42105;BME280;61464;51.472;5.712;2022-07-22T01:02:11;102007.91;;;14.76;100.00
42105;BME280;61464;51.472;5.712;2022-07-22T01:04:39;101999.19;;;14.67;100.00
42105;BME280;61464;51.472;5.712;2022-07-22T01:07:05;102001.81;;;14.67;100.00
42105;BME280;61464;51.472;5.712;2022-07-22T01:09:34;101999.72;;;14.71;100.00
42105;BME280;61464;51.472;5.712;2022-07-22T01:12:01;102001.00;;;14.67;100.00
42105;BME280;61464;51.472;5.712;2022-07-22T01:14:27;101994.13;;;14.66;100.00
42105;BME280;61464;51.472;5.712;2022-07-22T01:16:56;101999.69;;;14.63;100.00
42105;BME280;61464;51.472;5.712;2022-07-22T01:19:22;101984.47;;;14.58;100.00
42105;BME280;61464;51.472;5.712;2022-07-22T01:21:49;102001.97;;;14.66;100.00
42105;BME280;61464;51.472;5.712;2022-07-22T01:24:15;101991.47;;;14.58;100.00
42105;BME280;61464;51.472;5.712;2022-07-22T01:26:41;101994.13;;;14.66;100.00
42105;BME280;61464;51.472;5.712;2022-07-22T01:29:10;101995.94;;;14.65;100.00
42105;BME280;61464;51.472;5.712;2022-07-22T01:31:36;101983.47;;;14.59;100.00
42105;BME280;61464;51.472;5.712;2022-07-22T01:34:06;101982.25;;;14.54;100.00
42105;BME280;61464;51.472;5.712;2022-07-22T01:36:36;102002.59;;;14.60;100.00
42105;BME280;61464;51.472;5.712;2022-07-22T01:39:04;101999.16;;;14.59;100.00
42105;BME280;61464;51.472;5.712;2022-07-22T01:41:34;102006.84;;;14.61;100.00
42105;BME280;61464;51.472;5.712;2022-07-22T01:44:00;101990.56;;;14.49;100.00
42105;BME280;61464;51.472;5.712;2022-07-22T01:46:27;102007.66;;;14.61;100.00
42105;BME280;61464;51.472;5.712;2022-07-22T01:48:55;101986.09;;;14.41;100.00
42105;BME280;61464;51.472;5.712;2022-07-22T01:51:23;102005.59;;;14.47;100.00
42105;BME280;61464;51.472;5.712;2022-07-22T01:53:49;102005.53;;;14.39;100.00
42105;BME280;61464;51.472;5.712;2022-07-22T01:56:17;101999.16;;;14.41;100.00
42105;BME280;61464;51.472;5.712;2022-07-22T01:58:44;102000.16;;;14.40;100.00
42105;BME280;61464;51.472;5.712;2022-07-22T02:01:11;101996.13;;;14.46;100.00
42105;BME280;61464;51.472;5.712;2022-07-22T02:03:47;102007.13;;;14.58;100.00
42105;BME280;61464;51.472;5.712;2022-07-22T02:06:24;101991.66;;;14.56;100.00
42105;BME280;61464;51.472;5.712;2022-07-22T02:08:50;101991.75;;;14.55;100.00
42105;BME280;61464;51.472;5.712;2022-07-22T02:11:16;101991.38;;;14.49;100.00
42105;BME280;61464;51.472;5.712;2022-07-22T02:13:44;101984.22;;;14.52;100.00
42105;BME280;61464;51.472;5.712;2022-07-22T02:16:15;101984.06;;;14.53;100.00
42105;BME280;61464;51.472;5.712;2022-07-22T02:18:42;101992.66;;;14.63;100.00
42105;BME280;61464;51.472;5.712;2022-07-22T02:21:08;101995.13;;;14.65;100.00
42105;BME280;61464;51.472;5.712;2022-07-22T02:23:34;101996.53;;;14.59;100.00
42105;BME280;61464;51.472;5.712;2022-07-22T02:26:07;101986.75;;;14.61;100.00
42105;BME280;61464;51.472;5.712;2022-07-22T02:28:35;101989.88;;;14.65;100.00
42105;BME280;61464;51.472;5.712;2022-07-22T02:31:13;101989.25;;;14.71;100.00
42105;BME280;61464;51.472;5.712;2022-07-22T02:33:40;102004.78;;;14.73;100.00
42105;BME280;61464;51.472;5.712;2022-07-22T02:36:09;102008.88;;;14.75;99.86
42105;BME280;61464;51.472;5.712;2022-07-22T02:38:39;101986.50;;;14.73;99.57
42105;BME280;61464;51.472;5.712;2022-07-22T02:41:05;101991.38;;;14.67;99.19
42105;BME280;61464;51.472;5.712;2022-07-22T02:43:36;101993.50;;;14.72;99.45
42105;BME280;61464;51.472;5.712;2022-07-22T02:46:09;101980.09;;;14.67;99.73
42105;BME280;61464;51.472;5.712;2022-07-22T02:53:47;101998.78;;;14.80;99.22
42105;BME280;61464;51.472;5.712;2022-07-22T02:56:21;101995.50;;;14.78;98.89
42105;BME280;61464;51.472;5.712;2022-07-22T02:58:59;101980.44;;;14.72;98.65
42105;BME280;61464;51.472;5.712;2022-07-22T03:01:35;101997.97;;;14.80;98.36
42105;BME280;61464;51.472;5.712;2022-07-22T03:04:10;101981.56;;;14.69;98.41
42105;BME280;61464;51.472;5.712;2022-07-22T03:07:55;101986.31;;;14.74;98.47
42105;BME280;61464;51.472;5.712;2022-07-22T03:10:23;101971.44;;;14.66;97.88
42105;BME280;61464;51.472;5.712;2022-07-22T03:12:50;101978.00;;;14.71;98.45
42105;BME280;61464;51.472;5.712;2022-07-22T07:25:43;101973.28;;;18.42;74.30
42105;BME280;61464;51.472;5.712;2022-07-22T07:42:39;101950.13;;;18.08;74.38
42105;BME280;61464;51.472;5.712;2022-07-22T08:34:42;101938.44;;;19.21;66.64
42105;BME280;61464;51.472;5.712;2022-07-22T08:47:32;101943.28;;;19.39;62.27
42105;BME280;61464;51.472;5.712;2022-07-22T08:52:49;101933.00;;;19.87;62.65
42105;BME280;61464;51.472;5.712;2022-07-22T09:00:25;101946.25;;;20.01;61.86
42105;BME280;61464;51.472;5.712;2022-07-22T09:05:21;101932.44;;;19.99;60.38
42105;BME280;61464;51.472;5.712;2022-07-22T09:23:21;101941.94;;;20.21;60.43
42105;BME280;61464;51.472;5.712;2022-07-22T09:25:52;101927.88;;;19.79;62.88
42105;BME280;61464;51.472;5.712;2022-07-22T09:39:39;101924.84;;;20.10;62.35
42105;BME280;61464;51.472;5.712;2022-07-22T10:00:27;101911.97;;;20.77;60.89
42105;BME280;61464;51.472;5.712;2022-07-22T10:13:09;101904.94;;;20.98;59.94
42105;BME280;61464;51.472;5.712;2022-07-22T10:15:41;101919.41;;;21.22;57.18
42105;BME280;61464;51.472;5.712;2022-07-22T10:36:35;101911.91;;;21.32;57.44
42105;BME280;61464;51.472;5.712;2022-07-22T10:39:13;101906.88;;;20.69;57.25
42105;BME280;61464;51.472;5.712;2022-07-22T10:41:45;101918.97;;;21.12;56.49
42105;BME280;61464;51.472;5.712;2022-07-22T10:46:55;101911.75;;;21.60;55.64
42105;BME280;61464;51.472;5.712;2022-07-22T10:52:39;101904.91;;;22.31;53.26
42105;BME280;61464;51.472;5.712;2022-07-22T10:55:20;101897.59;;;22.78;52.04
42105;BME280;61464;51.472;5.712;2022-07-22T10:57:46;101910.63;;;22.35;53.35
42105;BME280;61464;51.472;5.712;2022-07-22T11:00:14;101912.13;;;21.84;53.94
42105;BME280;61464;51.472;5.712;2022-07-22T11:02:46;101902.59;;;21.49;56.23
42105;BME280;61464;51.472;5.712;2022-07-22T11:05:13;101887.91;;;21.20;55.92
42105;BME280;61464;51.472;5.712;2022-07-22T11:08:23;101887.06;;;20.86;55.30
42105;BME280;61464;51.472;5.712;2022-07-22T11:10:53;101890.84;;;20.70;58.42
42105;BME280;61464;51.472;5.712;2022-07-22T11:13:41;101890.34;;;21.22;57.70
42105;BME280;61464;51.472;5.712;2022-07-22T11:16:27;101881.41;;;21.16;57.15
42105;BME280;61464;51.472;5.712;2022-07-22T11:19:01;101880.63;;;21.36;55.65
42105;BME280;61464;51.472;5.712;2022-07-22T11:21:35;101889.16;;;21.31;54.73
42105;BME280;61464;51.472;5.712;2022-07-22T11:24:07;101878.16;;;21.94;53.88
42105;BME280;61464;51.472;5.712;2022-07-22T11:27:08;101881.28;;;22.43;52.16
42105;BME280;61464;51.472;5.712;2022-07-22T11:29:39;101880.16;;;22.05;52.75
42105;BME280;61464;51.472;5.712;2022-07-22T11:32:10;101866.50;;;22.15;54.02
42105;BME280;61464;51.472;5.712;2022-07-22T11:35:17;101879.16;;;22.65;53.61
42105;BME280;61464;51.472;5.712;2022-07-22T11:37:56;101871.66;;;21.83;53.96
42105;BME280;61464;51.472;5.712;2022-07-22T11:40:38;101879.09;;;22.20;53.72
42105;BME280;61464;51.472;5.712;2022-07-22T11:43:07;101876.00;;;22.43;53.38
42105;BME280;61464;51.472;5.712;2022-07-22T11:49:27;101845.09;;;22.75;51.93
42105;BME280;61464;51.472;5.712;2022-07-22T11:57:50;101841.75;;;22.03;53.55
42105;BME280;61464;51.472;5.712;2022-07-22T12:07:55;101821.78;;;22.00;53.43
42105;BME280;61464;51.472;5.712;2022-07-22T12:10:36;101824.97;;;22.29;52.39
42105;BME280;61464;51.472;5.712;2022-07-22T12:13:02;101818.88;;;21.23;53.50
42105;BME280;61464;51.472;5.712;2022-07-22T12:15:29;101819.72;;;22.16;52.93
42105;BME280;61464;51.472;5.712;2022-07-22T12:18:21;101814.44;;;22.16;52.65
42105;BME280;61464;51.472;5.712;2022-07-22T12:21:08;101807.06;;;22.31;50.51
42105;BME280;61464;51.472;5.712;2022-07-22T12:24:05;101804.50;;;22.04;51.70
42105;BME280;61464;51.472;5.712;2022-07-22T12:26:45;101811.78;;;22.61;53.40
42105;BME280;61464;51.472;5.712;2022-07-22T12:35:22;101792.09;;;22.05;53.08
42105;BME280;61464;51.472;5.712;2022-07-22T12:37:51;101802.59;;;22.25;51.92
42105;BME280;61464;51.472;5.712;2022-07-22T12:40:24;101796.81;;;23.12;51.65
42105;BME280;61464;51.472;5.712;2022-07-22T12:43:05;101809.09;;;22.99;49.85
42105;BME280;61464;51.472;5.712;2022-07-22T12:45:37;101804.22;;;22.96;51.18
42105;BME280;61464;51.472;5.712;2022-07-22T12:48:07;101806.25;;;23.26;51.79
42105;BME280;61464;51.472;5.712;2022-07-22T12:50:58;101815.00;;;23.26;50.99
42105;BME280;61464;51.472;5.712;2022-07-22T12:53:25;101813.94;;;22.77;53.28
42105;BME280;61464;51.472;5.712;2022-07-22T12:56:02;101807.06;;;22.95;51.62
42105;BME280;61464;51.472;5.712;2022-07-22T12:58:59;101811.50;;;23.01;50.79
42105;BME280;61464;51.472;5.712;2022-07-22T13:01:26;101806.13;;;22.82;51.16
42105;BME280;61464;51.472;5.712;2022-07-22T13:03:52;101808.00;;;22.50;51.24
42105;BME280;61464;51.472;5.712;2022-07-22T13:06:18;101798.19;;;23.58;50.04
42105;BME280;61464;51.472;5.712;2022-07-22T13:08:47;101801.69;;;23.33;49.88
42105;BME280;61464;51.472;5.712;2022-07-22T13:11:16;101788.59;;;22.88;50.51
42105;BME280;61464;51.472;5.712;2022-07-22T13:13:45;101796.31;;;23.40;50.00
42105;BME280;61464;51.472;5.712;2022-07-22T13:16:13;101795.75;;;23.13;51.22
42105;BME280;61464;51.472;5.712;2022-07-22T13:18:40;101794.25;;;23.85;49.21
42105;BME280;61464;51.472;5.712;2022-07-22T13:21:06;101796.19;;;23.53;49.27
42105;BME280;61464;51.472;5.712;2022-07-22T13:23:31;101788.13;;;23.85;48.57
42105;BME280;61464;51.472;5.712;2022-07-22T13:25:57;101790.81;;;23.60;49.17
42105;BME280;61464;51.472;5.712;2022-07-22T13:28:23;101773.63;;;23.25;49.91
42105;BME280;61464;51.472;5.712;2022-07-22T13:30:52;101779.66;;;23.14;50.77
42105;BME280;61464;51.472;5.712;2022-07-22T13:33:18;101777.00;;;23.14;50.79
42105;BME280;61464;51.472;5.712;2022-07-22T13:35:55;101804.44;;;22.63;52.06
42105;BME280;61464;51.472;5.712;2022-07-22T13:38:27;101794.75;;;22.82;52.44
42105;BME280;61464;51.472;5.712;2022-07-22T13:41:20;101789.25;;;23.77;50.68
42105;BME280;61464;51.472;5.712;2022-07-22T13:43:55;101793.25;;;23.61;50.45
42105;BME280;61464;51.472;5.712;2022-07-22T13:46:28;101786.91;;;23.44;48.93
42105;BME280;61464;51.472;5.712;2022-07-22T13:49:11;101793.94;;;22.81;53.00
42105;BME280;61464;51.472;5.712;2022-07-22T13:51:49;101785.66;;;23.28;52.45
42105;BME280;61464;51.472;5.712;2022-07-22T13:54:19;101785.09;;;23.63;50.80
42105;BME280;61464;51.472;5.712;2022-07-22T14:04:17;101762.63;;;24.33;49.79
42105;BME280;61464;51.472;5.712;2022-07-22T14:06:44;101765.97;;;23.98;50.38
42105;BME280;61464;51.472;5.712;2022-07-22T14:09:10;101769.81;;;24.14;48.84
42105;BME280;61464;51.472;5.712;2022-07-22T14:14:54;101776.00;;;24.07;49.34
42105;BME280;61464;51.472;5.712;2022-07-22T14:17:49;101759.28;;;23.15;50.57
42105;BME280;61464;51.472;5.712;2022-07-22T14:20:38;101775.72;;;23.60;49.66
42105;BME280;61464;51.472;5.712;2022-07-22T14:23:11;101770.69;;;23.34;50.31
42105;BME280;61464;51.472;5.712;2022-07-22T14:28:14;101768.94;;;24.01;49.29
42105;BME280;61464;51.472;5.712;2022-07-22T14:30:43;101754.81;;;23.89;49.42
42105;BME280;61464;51.472;5.712;2022-07-22T14:33:25;101763.38;;;23.91;50.87
42105;BME280;61464;51.472;5.712;2022-07-22T14:39:07;101778.00;;;24.42;49.92
42105;BME280;61464;51.472;5.712;2022-07-22T14:42:09;101768.41;;;24.72;48.24
42105;BME280;61464;51.472;5.712;2022-07-22T14:45:03;101756.91;;;23.87;49.70
42105;BME280;61464;51.472;5.712;2022-07-22T14:47:55;101750.94;;;22.86;50.86
42105;BME280;61464;51.472;5.712;2022-07-22T14:50:49;101762.69;;;23.22;50.99
42105;BME280;61464;51.472;5.712;2022-07-22T14:55:51;101774.34;;;23.95;49.90
42105;BME280;61464;51.472;5.712;2022-07-22T15:01:13;101745.69;;;23.85;50.00
42105;BME280;61464;51.472;5.712;2022-07-22T15:03:56;101743.50;;;23.82;50.89
42105;BME280;61464;51.472;5.712;2022-07-22T15:06:30;101743.63;;;23.68;50.97
42105;BME280;61464;51.472;5.712;2022-07-22T15:09:02;101743.00;;;23.92;49.59
42105;BME280;61464;51.472;5.712;2022-07-22T15:11:32;101749.38;;;23.65;50.06
42105;BME280;61464;51.472;5.712;2022-07-22T15:17:03;101745.97;;;23.40;50.02
42105;BME280;61464;51.472;5.712;2022-07-22T15:28:25;101718.38;;;23.10;51.48
42105;BME280;61464;51.472;5.712;2022-07-22T15:31:25;101731.56;;;23.36;51.10
42105;BME280;61464;51.472;5.712;2022-07-22T15:34:11;101733.00;;;23.13;53.18
42105;BME280;61464;51.472;5.712;2022-07-22T15:53:20;101682.75;;;24.10;50.18
42105;BME280;61464;51.472;5.712;2022-07-22T15:56:22;101684.88;;;24.32;50.50
42105;BME280;61464;51.472;5.712;2022-07-22T15:58:51;101678.69;;;24.85;49.52
42105;BME280;61464;51.472;5.712;2022-07-22T16:01:39;101671.78;;;24.07;50.68
42105;BME280;61464;51.472;5.712;2022-07-22T16:04:05;101682.91;;;23.97;49.56
42105;BME280;61464;51.472;5.712;2022-07-22T16:06:34;101681.16;;;23.61;49.61
42105;BME280;61464;51.472;5.712;2022-07-22T16:09:03;101689.31;;;24.20;49.56
42105;BME280;61464;51.472;5.712;2022-07-22T16:11:28;101697.47;;;24.48;48.20
42105;BME280;61464;51.472;5.712;2022-07-22T16:13:55;101693.25;;;23.68;49.63
42105;BME280;61464;51.472;5.712;2022-07-22T16:16:23;101682.19;;;23.41;51.25
42105;BME280;61464;51.472;5.712;2022-07-22T16:18:53;101691.56;;;22.75;52.62
42105;BME280;61464;51.472;5.712;2022-07-22T16:21:52;101696.91;;;22.94;53.32
42105;BME280;61464;51.472;5.712;2022-07-22T16:24:32;101678.72;;;22.79;53.72
42105;BME280;61464;51.472;5.712;2022-07-22T16:27:19;101691.59;;;22.50;54.28
42105;BME280;61464;51.472;5.712;2022-07-22T16:30:24;101679.22;;;22.69;53.23
42105;BME280;61464;51.472;5.712;2022-07-22T16:32:56;101689.38;;;22.90;53.54
42105;BME280;61464;51.472;5.712;2022-07-22T16:35:44;101680.06;;;22.38;54.49
42105;BME280;61464;51.472;5.712;2022-07-22T16:38:11;101693.72;;;22.60;54.53
42105;BME280;61464;51.472;5.712;2022-07-22T16:40:42;101678.53;;;22.23;54.31
42105;BME280;61464;51.472;5.712;2022-07-22T16:43:13;101682.81;;;22.18;55.11
42105;BME280;61464;51.472;5.712;2022-07-22T16:45:59;101679.78;;;22.14;56.67
42105;BME280;61464;51.472;5.712;2022-07-22T16:48:27;101681.69;;;21.55;56.53
42105;BME280;61464;51.472;5.712;2022-07-22T16:50:53;101681.41;;;21.77;55.95
42105;BME280;61464;51.472;5.712;2022-07-22T16:53:21;101681.72;;;21.48;57.76
42105;BME280;61464;51.472;5.712;2022-07-22T16:55:51;101685.00;;;21.89;57.30
42105;BME280;61464;51.472;5.712;2022-07-22T16:58:20;101699.00;;;21.38;57.10
42105;BME280;61464;51.472;5.712;2022-07-22T17:00:52;101697.75;;;21.40;57.08
42105;BME280;61464;51.472;5.712;2022-07-22T17:03:18;101687.22;;;21.34;57.47
42105;BME280;61464;51.472;5.712;2022-07-22T17:05:49;101689.84;;;21.54;57.39
42105;BME280;61464;51.472;5.712;2022-07-22T17:08:36;101681.13;;;21.26;57.84
42105;BME280;61464;51.472;5.712;2022-07-22T17:11:08;101675.44;;;21.43;57.49
42105;BME280;61464;51.472;5.712;2022-07-22T17:13:45;101675.81;;;21.40;57.49
42105;BME280;61464;51.472;5.712;2022-07-22T17:16:20;101669.44;;;21.67;57.90
42105;BME280;61464;51.472;5.712;2022-07-22T17:19:23;101673.47;;;21.77;56.79
42105;BME280;61464;51.472;5.712;2022-07-22T17:21:51;101686.94;;;21.68;56.92
42105;BME280;61464;51.472;5.712;2022-07-22T17:24:18;101660.31;;;21.63;57.21
42105;BME280;61464;51.472;5.712;2022-07-22T17:26:48;101667.31;;;21.89;57.19
42105;BME280;61464;51.472;5.712;2022-07-22T17:29:34;101652.63;;;21.62;57.80
42105;BME280;61464;51.472;5.712;2022-07-22T17:32:03;101657.75;;;21.50;57.58
42105;BME280;61464;51.472;5.712;2022-07-22T17:34:32;101653.94;;;21.26;58.18
42105;BME280;61464;51.472;5.712;2022-07-22T17:39:57;101659.38;;;21.38;58.99
42105;BME280;61464;51.472;5.712;2022-07-22T17:42:52;101670.97;;;21.30;58.49
42105;BME280;61464;51.472;5.712;2022-07-22T17:45:26;101647.63;;;21.34;58.49
42105;BME280;61464;51.472;5.712;2022-07-22T17:48:25;101665.06;;;21.35;59.48
42105;BME280;61464;51.472;5.712;2022-07-22T17:51:08;101652.06;;;21.40;58.40
42105;BME280;61464;51.472;5.712;2022-07-22T17:53:45;101644.38;;;21.32;58.28
42105;BME280;61464;51.472;5.712;2022-07-22T17:56:13;101648.66;;;21.26;58.87
42105;BME280;61464;51.472;5.712;2022-07-22T17:58:45;101641.56;;;21.13;58.18
42105;BME280;61464;51.472;5.712;2022-07-22T18:03:47;101637.31;;;21.12;58.89
42105;BME280;61464;51.472;5.712;2022-07-22T18:06:14;101630.03;;;21.01;59.51
42105;BME280;61464;51.472;5.712;2022-07-22T18:08:45;101636.97;;;20.68;60.23
42105;BME280;61464;51.472;5.712;2022-07-22T18:12:12;101640.00;;;20.85;60.97
42105;BME280;61464;51.472;5.712;2022-07-22T18:14:49;101631.06;;;20.40;60.95
42105;BME280;61464;51.472;5.712;2022-07-22T18:17:16;101630.47;;;20.24;61.65
42105;BME280;61464;51.472;5.712;2022-07-22T18:19:47;101643.63;;;20.24;61.81
42105;BME280;61464;51.472;5.712;2022-07-22T18:22:13;101651.13;;;20.21;62.57
42105;BME280;61464;51.472;5.712;2022-07-22T18:25:07;101651.31;;;20.19;62.47
42105;BME280;61464;51.472;5.712;2022-07-22T18:28:22;101671.41;;;20.27;61.97
42105;BME280;61464;51.472;5.712;2022-07-22T18:30:48;101667.50;;;19.96;62.53
42105;BME280;61464;51.472;5.712;2022-07-22T18:33:15;101664.50;;;20.06;63.72
42105;BME280;61464;51.472;5.712;2022-07-22T18:35:58;101653.72;;;20.01;62.76
42105;BME280;61464;51.472;5.712;2022-07-22T18:38:53;101648.88;;;20.11;63.52
42105;BME280;61464;51.472;5.712;2022-07-22T18:41:29;101646.84;;;20.20;63.11
42105;BME280;61464;51.472;5.712;2022-07-22T18:44:06;101654.75;;;20.00;63.40
42105;BME280;61464;51.472;5.712;2022-07-22T18:47:09;101643.41;;;20.06;64.16
42105;BME280;61464;51.472;5.712;2022-07-22T18:49:39;101639.31;;;19.83;64.28
42105;BME280;61464;51.472;5.712;2022-07-22T18:52:20;101667.44;;;19.83;65.06
42105;BME280;61464;51.472;5.712;2022-07-22T18:54:54;101659.16;;;19.79;65.05
42105;BME280;61464;51.472;5.712;2022-07-22T18:57:25;101633.59;;;19.73;65.06
42105;BME280;61464;51.472;5.712;2022-07-22T19:00:00;101638.59;;;19.61;65.87
42105;BME280;61464;51.472;5.712;2022-07-22T19:02:36;101661.06;;;19.57;66.00
42105;BME280;61464;51.472;5.712;2022-07-22T19:05:03;101640.50;;;19.39;66.68
42105;BME280;61464;51.472;5.712;2022-07-22T19:07:46;101666.03;;;19.39;66.96
42105;BME280;61464;51.472;5.712;2022-07-22T19:10:16;101654.84;;;19.30;67.04
42105;BME280;61464;51.472;5.712;2022-07-22T19:12:42;101662.13;;;19.28;66.19
42105;BME280;61464;51.472;5.712;2022-07-22T19:15:08;101649.28;;;19.12;67.06
42105;BME280;61464;51.472;5.712;2022-07-22T19:17:35;101651.13;;;19.18;66.39
42105;BME280;61464;51.472;5.712;2022-07-22T19:20:04;101658.41;;;19.16;66.92
42105;BME280;61464;51.472;5.712;2022-07-22T19:22:32;101653.94;;;19.16;67.48
42105;BME280;61464;51.472;5.712;2022-07-22T19:25:00;101649.03;;;19.06;68.01
42105;BME280;61464;51.472;5.712;2022-07-22T19:27:34;101645.97;;;19.03;67.37
42105;BME280;61464;51.472;5.712;2022-07-22T19:30:05;101649.97;;;18.99;67.57
42105;BME280;61464;51.472;5.712;2022-07-22T19:32:31;101652.41;;;18.94;68.18
42105;BME280;61464;51.472;5.712;2022-07-22T19:34:58;101650.97;;;18.91;68.41
42105;BME280;61464;51.472;5.712;2022-07-22T19:37:24;101663.09;;;18.92;67.98
42105;BME280;61464;51.472;5.712;2022-07-22T19:39:54;101661.34;;;18.78;68.42
42105;BME280;61464;51.472;5.712;2022-07-22T19:42:21;101666.91;;;18.83;68.45
42105;BME280;61464;51.472;5.712;2022-07-22T19:44:50;101657.66;;;18.72;69.33
42105;BME280;61464;51.472;5.712;2022-07-22T19:47:23;101679.44;;;18.81;69.37
42105;BME280;61464;51.472;5.712;2022-07-22T19:49:50;101672.41;;;18.66;69.38
42105;BME280;61464;51.472;5.712;2022-07-22T19:52:16;101658.00;;;18.62;70.37
42105;BME280;61464;51.472;5.712;2022-07-22T19:54:47;101666.69;;;18.63;69.91
42105;BME280;61464;51.472;5.712;2022-07-22T19:57:15;101669.06;;;18.58;70.66
42105;BME280;61464;51.472;5.712;2022-07-22T20:00:08;101673.81;;;18.69;70.44
42105;BME280;61464;51.472;5.712;2022-07-22T20:02:36;101673.28;;;18.52;70.94
42105;BME280;61464;51.472;5.712;2022-07-22T20:05:08;101671.19;;;18.47;70.70
42105;BME280;61464;51.472;5.712;2022-07-22T20:07:35;101672.34;;;18.38;72.01
42105;BME280;61464;51.472;5.712;2022-07-22T20:10:03;101681.59;;;18.34;72.21
42105;BME280;61464;51.472;5.712;2022-07-22T20:12:29;101684.47;;;18.18;73.59
42105;BME280;61464;51.472;5.712;2022-07-22T20:15:02;101701.78;;;18.12;74.58
42105;BME280;61464;51.472;5.712;2022-07-22T20:17:30;101702.63;;;17.98;75.51
42105;BME280;61464;51.472;5.712;2022-07-22T20:20:19;101697.31;;;17.91;74.86
42105;BME280;61464;51.472;5.712;2022-07-22T20:22:45;101677.28;;;17.75;75.57
42105;BME280;61464;51.472;5.712;2022-07-22T20:25:17;101672.50;;;17.64;75.74
42105;BME280;61464;51.472;5.712;2022-07-22T20:27:46;101671.25;;;17.60;75.65
42105;BME280;61464;51.472;5.712;2022-07-22T20:30:14;101692.03;;;17.61;75.48
42105;BME280;61464;51.472;5.712;2022-07-22T20:32:42;101702.84;;;17.66;75.77
42105;BME280;61464;51.472;5.712;2022-07-22T20:35:10;101703.19;;;17.63;75.54
42105;BME280;61464;51.472;5.712;2022-07-22T20:37:42;101682.19;;;17.63;76.11
42105;BME280;61464;51.472;5.712;2022-07-22T20:40:11;101667.69;;;17.67;76.14
42105;BME280;61464;51.472;5.712;2022-07-22T20:42:39;101680.38;;;17.64;76.65
42105;BME280;61464;51.472;5.712;2022-07-22T20:45:09;101671.25;;;17.60;76.79
42105;BME280;61464;51.472;5.712;2022-07-22T20:47:36;101670.16;;;17.54;76.94
42105;BME280;61464;51.472;5.712;2022-07-22T20:50:15;101673.59;;;17.55;77.12
42105;BME280;61464;51.472;5.712;2022-07-22T20:52:46;101683.09;;;17.41;77.79
42105;BME280;61464;51.472;5.712;2022-07-22T20:55:15;101687.06;;;17.37;78.03
42105;BME280;61464;51.472;5.712;2022-07-22T20:57:44;101706.38;;;17.44;78.20
42105;BME280;61464;51.472;5.712;2022-07-22T21:00:36;101704.91;;;17.56;78.42
42105;BME280;61464;51.472;5.712;2022-07-22T21:03:03;101689.59;;;17.45;78.50
42105;BME280;61464;51.472;5.712;2022-07-22T21:05:48;101700.66;;;17.70;78.38
42105;BME280;61464;51.472;5.712;2022-07-22T21:08:47;101692.31;;;17.37;78.59
42105;BME280;61464;51.472;5.712;2022-07-22T21:11:25;101701.38;;;17.34;78.81
42105;BME280;61464;51.472;5.712;2022-07-22T21:14:01;101706.72;;;17.41;79.02
42105;BME280;61464;51.472;5.712;2022-07-22T21:16:29;101687.25;;;17.20;79.47
42105;BME280;61464;51.472;5.712;2022-07-22T21:19:02;101699.47;;;17.28;80.38
42105;BME280;61464;51.472;5.712;2022-07-22T21:24:13;101688.09;;;17.21;80.38
42105;BME280;61464;51.472;5.712;2022-07-22T21:27:04;101688.88;;;17.06;81.09
42105;BME280;61464;51.472;5.712;2022-07-22T21:29:30;101705.41;;;17.07;81.37
42105;BME280;61464;51.472;5.712;2022-07-22T21:32:30;101709.28;;;16.96;81.73
42105;BME280;61464;51.472;5.712;2022-07-22T21:37:35;101725.78;;;17.05;82.24
42105;BME280;61464;51.472;5.712;2022-07-22T21:40:07;101729.09;;;16.99;83.19
42105;BME280;61464;51.472;5.712;2022-07-22T21:42:34;101736.81;;;17.00;83.22
42105;BME280;61464;51.472;5.712;2022-07-22T21:45:02;101741.22;;;17.00;84.01